createdAt,value
2022-07-25T00:02:09.886Z,8.00
2022-07-25T00:04:37.793Z,9.87
2022-07-25T00:07:06.306Z,8.70
2022-07-25T00:09:33.925Z,9.33
2022-07-25T00:12:03.017Z,9.67
2022-07-25T00:14:33.697Z,9.67
2022-07-25T00:17:01.305Z,9.57
2022-07-25T00:19:28.938Z,10.83
2022-07-25T00:21:56.620Z,11.33
2022-07-25T00:24:24.190Z,8.73
2022-07-25T00:26:51.808Z,11.33
2022-07-25T00:29:20.975Z,8.80
2022-07-25T00:31:48.711Z,9.07
2022-07-25T00:34:16.504Z,11.67
2022-07-25T00:36:44.371Z,8.50
2022-07-25T00:39:12.003Z,9.77
2022-07-25T00:41:39.637Z,13.20
2022-07-25T00:44:07.711Z,9.73
2022-07-25T00:46:39.125Z,10.03
2022-07-25T00:49:06.873Z,10.37
2022-07-25T00:51:34.850Z,10.77
2022-07-25T00:54:02.676Z,10.27
2022-07-25T00:56:30.609Z,10.70
2022-07-25T00:58:58.297Z,10.47
2022-07-25T01:01:26.038Z,13.87
2022-07-25T01:03:55.034Z,16.53
2022-07-25T01:06:24.810Z,11.00
2022-07-25T01:08:52.603Z,22.07
2022-07-25T01:11:20.340Z,14.57
2022-07-25T01:13:48.004Z,10.50
2022-07-25T01:16:15.951Z,10.07
2022-07-25T01:18:43.695Z,11.90
2022-07-25T01:21:12.886Z,10.17
2022-07-25T01:23:40.545Z,11.87
2022-07-25T01:26:08.274Z,8.90
2022-07-25T01:28:35.922Z,11.97
2022-07-25T01:31:03.594Z,11.57
2022-07-25T01:33:31.357Z,14.30
2022-07-25T01:35:58.957Z,9.93
2022-07-25T01:38:28.016Z,11.20
2022-07-25T01:40:55.671Z,9.83
2022-07-25T01:43:23.251Z,8.37
2022-07-25T01:45:51.077Z,11.47
2022-07-25T01:48:18.757Z,12.23
2022-07-25T01:50:47.670Z,19.60
2022-07-25T01:53:16.691Z,9.90
2022-07-25T01:55:47.662Z,11.70
2022-07-25T01:58:15.860Z,9.17
2022-07-25T02:00:45.238Z,8.87
2022-07-25T02:03:31.232Z,10.27
2022-07-25T02:05:59.935Z,13.10
2022-07-25T02:08:27.831Z,8.60
2022-07-25T02:10:57.427Z,12.17
2022-07-25T02:13:25.222Z,13.07
2022-07-25T02:15:52.852Z,10.13
2022-07-25T02:18:20.606Z,9.13
2022-07-25T02:20:48.423Z,11.97
2022-07-25T02:23:16.056Z,8.63
2022-07-25T02:25:43.673Z,12.33
2022-07-25T02:28:12.684Z,10.50
2022-07-25T02:30:40.494Z,9.33
2022-07-25T02:33:08.238Z,11.90
2022-07-25T02:35:35.983Z,8.27
2022-07-25T02:38:03.615Z,10.30
2022-07-25T02:40:31.283Z,11.67
2022-07-25T02:42:58.881Z,9.67
2022-07-25T02:45:27.965Z,10.60
2022-07-25T02:47:55.636Z,8.70
2022-07-25T02:50:24.593Z,8.23
2022-07-25T02:52:52.200Z,10.83
2022-07-25T02:55:20.147Z,10.10
2022-07-25T02:57:47.779Z,11.93
2022-07-25T03:00:16.737Z,9.13
2022-07-25T03:02:46.336Z,9.33
2022-07-25T03:05:15.440Z,11.67
2022-07-25T03:07:43.711Z,10.17
2022-07-25T03:10:13.193Z,10.20
2022-07-25T03:12:41.417Z,14.80
2022-07-25T03:15:09.902Z,8.87
2022-07-25T03:17:38.037Z,12.57
2022-07-25T03:20:08.978Z,10.23
2022-07-25T03:22:37.055Z,10.47
2022-07-25T03:25:05.137Z,10.73
2022-07-25T03:27:32.831Z,11.13
2022-07-25T03:30:00.614Z,13.77
2022-07-25T03:32:28.179Z,12.07
2022-07-25T03:34:55.851Z,11.10
2022-07-25T03:37:24.892Z,10.13
2022-07-25T03:39:53.106Z,14.30
2022-07-25T03:42:26.366Z,9.37
2022-07-25T03:44:54.271Z,9.43
2022-07-25T03:47:21.963Z,9.27
2022-07-25T03:49:49.550Z,14.43
2022-07-25T03:52:17.142Z,9.20
2022-07-25T03:54:46.166Z,12.07
2022-07-25T03:57:13.827Z,11.87
2022-07-25T03:59:41.492Z,13.00
2022-07-25T04:02:09.397Z,12.17
2022-07-25T04:04:37.026Z,11.33
2022-07-25T04:07:04.719Z,10.80
2022-07-25T04:09:33.585Z,11.70
2022-07-25T04:12:03.022Z,12.07
2022-07-25T04:14:30.686Z,12.63
2022-07-25T04:16:58.356Z,10.70
2022-07-25T04:19:26.270Z,10.87
2022-07-25T04:21:56.685Z,9.23
2022-07-25T04:24:24.395Z,11.97
2022-07-25T04:26:52.062Z,12.00
2022-07-25T04:29:21.048Z,12.23
2022-07-25T04:31:49.079Z,9.73
2022-07-25T04:34:16.746Z,11.10
2022-07-25T04:36:44.413Z,9.83
2022-07-25T04:39:12.041Z,11.60
2022-07-25T04:41:39.739Z,12.83
2022-07-25T04:44:08.852Z,13.13
2022-07-25T04:46:38.237Z,10.07
2022-07-25T04:49:05.962Z,9.67
2022-07-25T04:51:33.650Z,9.63
2022-07-25T04:54:01.278Z,11.57
2022-07-25T04:56:28.901Z,15.07
2022-07-25T04:58:58.661Z,10.77
2022-07-25T05:01:29.617Z,12.23
2022-07-25T05:03:58.671Z,10.07
2022-07-25T05:06:26.482Z,10.23
2022-07-25T05:08:54.082Z,11.67
2022-07-25T05:11:21.707Z,10.17
2022-07-25T05:13:49.325Z,10.27
2022-07-25T05:16:17.227Z,8.17
2022-07-25T05:18:45.295Z,10.83
2022-07-25T05:21:14.941Z,8.13
2022-07-25T05:23:42.634Z,10.60
2022-07-25T05:26:10.263Z,9.90
2022-07-25T05:28:37.904Z,9.97
2022-07-25T05:31:05.752Z,12.33
2022-07-25T05:33:33.418Z,7.20
2022-07-25T05:36:01.179Z,7.83
2022-07-25T05:38:30.285Z,9.47
2022-07-25T05:40:58.174Z,8.37
2022-07-25T05:43:25.902Z,7.90
2022-07-25T05:45:53.600Z,10.00
2022-07-25T05:48:21.238Z,12.83
2022-07-25T05:50:48.908Z,8.30
2022-07-25T05:53:16.661Z,10.03
2022-07-25T05:55:46.001Z,9.33
2022-07-25T05:58:13.675Z,8.63
2022-07-25T06:00:41.378Z,10.43
2022-07-25T06:03:09.163Z,7.93
2022-07-25T06:05:36.802Z,7.73
2022-07-25T06:08:04.468Z,7.27
2022-07-25T06:10:32.135Z,8.77
2022-07-25T06:13:01.879Z,8.73
2022-07-25T06:15:29.545Z,9.60
2022-07-25T06:17:57.517Z,10.77
2022-07-25T06:20:26.928Z,7.23
2022-07-25T06:22:54.582Z,8.20
2022-07-25T06:25:22.247Z,8.33
2022-07-25T06:27:49.907Z,9.13
2022-07-25T06:30:20.416Z,10.03
2022-07-25T06:32:48.510Z,8.60
2022-07-25T06:35:16.212Z,6.33
2022-07-25T06:37:44.011Z,8.47
2022-07-25T06:40:12.115Z,8.70
2022-07-25T06:42:40.158Z,9.07
2022-07-25T06:45:09.546Z,10.20
2022-07-25T06:47:39.450Z,10.00
2022-07-25T06:50:08.094Z,9.30
2022-07-25T06:52:39.174Z,7.20
2022-07-25T06:55:08.365Z,9.33
2022-07-25T06:57:36.467Z,9.00
2022-07-25T07:00:07.360Z,9.73
2022-07-25T07:02:35.078Z,13.30
2022-07-25T07:05:04.237Z,9.27
2022-07-25T07:07:31.991Z,7.35
2022-07-25T07:09:59.592Z,9.52
2022-07-25T07:12:27.170Z,7.50
2022-07-25T07:14:54.811Z,7.75
2022-07-25T07:17:22.476Z,12.02
2022-07-25T07:19:50.092Z,13.07
2022-07-25T07:22:19.043Z,8.48
2022-07-25T07:24:48.062Z,6.30
2022-07-25T07:27:16.230Z,10.77
2022-07-25T07:29:46.783Z,14.38
2022-07-25T07:32:14.604Z,11.90
2022-07-25T07:34:42.270Z,11.15
2022-07-25T07:37:09.928Z,10.13
2022-07-25T07:39:39.122Z,8.57
2022-07-25T07:42:06.861Z,7.35
2022-07-25T07:44:34.990Z,11.40
2022-07-25T07:47:02.836Z,14.07
2022-07-25T07:49:30.522Z,12.30
2022-07-25T07:52:04.782Z,10.07
2022-07-25T07:54:50.061Z,10.85
2022-07-25T07:57:19.535Z,10.10
2022-07-25T07:59:47.145Z,11.13
2022-07-25T08:02:16.269Z,6.95
2022-07-25T08:04:44.042Z,7.50
2022-07-25T08:07:11.673Z,7.03
2022-07-25T08:09:39.261Z,9.90
2022-07-25T08:12:07.228Z,11.75
2022-07-25T08:14:36.230Z,7.07
2022-07-25T08:17:03.891Z,10.02
2022-07-25T08:19:32.103Z,6.75
2022-07-25T08:21:59.779Z,9.82
2022-07-25T08:24:27.356Z,6.95
2022-07-25T08:26:55.034Z,7.40
2022-07-25T08:29:27.776Z,9.90
2022-07-25T08:31:57.487Z,7.03
2022-07-25T08:34:25.104Z,9.45
2022-07-25T08:36:52.887Z,6.57
2022-07-25T08:39:20.494Z,15.40
2022-07-25T08:41:48.604Z,10.32
2022-07-25T08:44:18.626Z,11.60
2022-07-25T08:46:46.692Z,10.00
2022-07-25T08:49:15.824Z,6.53
2022-07-25T08:51:43.555Z,6.63
2022-07-25T08:54:11.898Z,10.98
2022-07-25T08:56:41.795Z,7.25
2022-07-25T08:59:10.137Z,5.80
2022-07-25T09:01:40.270Z,5.93
2022-07-25T09:04:09.668Z,8.00
2022-07-25T09:06:39.124Z,7.80
2022-07-25T09:09:08.504Z,10.80
2022-07-25T09:11:37.555Z,7.45
2022-07-25T09:14:07.186Z,8.10
2022-07-25T09:16:40.158Z,5.93
2022-07-25T09:19:10.865Z,6.85
2022-07-25T09:21:41.284Z,7.22
2022-07-25T09:24:10.829Z,8.13
2022-07-25T09:26:49.294Z,5.55
2022-07-25T09:29:22.786Z,6.80
2022-07-25T09:31:50.812Z,8.20
2022-07-25T09:34:30.653Z,7.28
2022-07-25T09:36:59.766Z,12.82
2022-07-25T09:39:43.510Z,10.70
2022-07-25T09:42:25.446Z,11.75
2022-07-25T09:45:01.580Z,10.20
2022-07-25T09:47:29.323Z,8.10
2022-07-25T09:49:57.247Z,8.07
2022-07-25T09:52:26.376Z,11.27
2022-07-25T09:54:55.386Z,7.88
2022-07-25T09:57:23.594Z,6.25
2022-07-25T09:59:51.260Z,9.82
2022-07-25T10:02:28.332Z,8.90
2022-07-25T10:05:04.826Z,8.93
2022-07-25T10:07:34.738Z,7.47
2022-07-25T10:10:02.667Z,8.75
2022-07-25T10:12:30.449Z,14.23
2022-07-25T10:15:09.144Z,14.70
2022-07-25T10:17:38.206Z,9.23
2022-07-25T10:20:08.320Z,10.73
2022-07-25T10:22:58.085Z,12.70
2022-07-25T10:25:26.113Z,8.07
2022-07-25T10:28:00.926Z,10.20
2022-07-25T10:30:34.667Z,6.57
2022-07-25T10:33:04.453Z,17.40
2022-07-25T10:35:32.516Z,9.70
2022-07-25T10:38:04.840Z,7.00
2022-07-25T10:40:35.121Z,9.47
2022-07-25T10:43:13.119Z,8.23
2022-07-25T10:45:42.790Z,7.90
2022-07-25T10:48:12.485Z,12.10
2022-07-25T10:50:55.753Z,5.53
2022-07-25T10:53:34.447Z,8.20
2022-07-25T10:56:08.288Z,6.57
2022-07-25T10:58:46.529Z,5.10
2022-07-25T11:01:15.195Z,4.63
2022-07-25T11:03:45.612Z,5.68
2022-07-25T11:06:15.038Z,6.32
2022-07-25T11:08:44.531Z,5.95
2022-07-25T11:11:13.082Z,5.72
2022-07-25T11:13:41.868Z,9.05
2022-07-25T11:16:10.579Z,4.93
2022-07-25T11:18:40.937Z,7.00
2022-07-25T11:21:09.835Z,3.15
2022-07-25T11:23:37.547Z,9.63
2022-07-25T11:26:08.246Z,5.28
2022-07-25T11:28:44.113Z,5.03
2022-07-25T11:31:13.167Z,5.15
2022-07-25T11:33:42.223Z,3.53
2022-07-25T11:36:11.787Z,3.63
2022-07-25T11:38:40.208Z,8.25
2022-07-25T11:41:09.234Z,3.40
2022-07-25T11:43:36.804Z,9.02
2022-07-25T11:46:07.563Z,6.68
2022-07-25T11:48:37.074Z,3.30
2022-07-25T11:51:17.984Z,5.22
2022-07-25T11:53:47.535Z,3.60
2022-07-25T11:56:41.392Z,5.30
2022-07-25T11:59:06.786Z,5.88
2022-07-25T12:01:35.855Z,4.00
2022-07-25T12:04:14.211Z,6.65
2022-07-25T12:06:42.255Z,5.57
2022-07-25T12:09:19.232Z,8.20
2022-07-25T12:11:49.506Z,4.43
2022-07-25T12:14:17.417Z,6.30
2022-07-25T12:16:45.339Z,11.02
2022-07-25T12:19:20.170Z,4.68
2022-07-25T12:21:47.821Z,3.25
2022-07-25T12:24:15.471Z,6.85
2022-07-25T12:26:43.500Z,8.52
2022-07-25T12:29:12.520Z,8.82
2022-07-25T12:31:40.233Z,3.67
2022-07-25T12:34:07.831Z,5.10
2022-07-25T12:36:41.129Z,9.38
2022-07-25T12:39:09.455Z,3.75
2022-07-25T12:41:37.434Z,3.83
2022-07-25T12:44:05.492Z,8.32
2022-07-25T12:46:35.999Z,8.18
2022-07-25T12:49:04.023Z,7.28
2022-07-25T12:51:31.873Z,8.30
2022-07-25T12:53:59.482Z,4.70
2022-07-25T12:56:27.026Z,4.25
2022-07-25T12:58:55.710Z,4.95
2022-07-25T13:01:23.635Z,5.57
2022-07-25T13:03:52.636Z,4.93
2022-07-25T13:06:20.776Z,3.47
2022-07-25T13:08:48.479Z,2.90
2022-07-25T13:11:16.131Z,3.22
2022-07-25T13:13:43.803Z,4.22
2022-07-25T13:16:11.554Z,3.50
2022-07-25T13:18:39.222Z,2.88
2022-07-25T13:21:08.336Z,3.75
2022-07-25T13:23:36.058Z,6.38
2022-07-25T13:26:03.765Z,9.13
2022-07-25T13:28:31.666Z,7.55
2022-07-25T13:31:00.438Z,4.13
2022-07-25T13:33:28.019Z,7.75
2022-07-25T13:35:55.804Z,4.25
2022-07-25T13:38:24.810Z,5.70
2022-07-25T13:40:58.440Z,4.43
2022-07-25T13:43:26.507Z,5.80
2022-07-25T13:45:54.176Z,2.28
2022-07-25T13:48:30.839Z,4.25
2022-07-25T13:50:59.819Z,8.68
2022-07-25T13:53:30.480Z,6.57
2022-07-25T13:55:59.178Z,3.95
2022-07-25T13:58:27.236Z,3.95
2022-07-25T14:00:54.925Z,2.22
2022-07-25T14:03:22.941Z,3.22
2022-07-25T14:05:50.733Z,4.20
2022-07-25T14:08:18.365Z,2.88
2022-07-25T14:10:47.523Z,6.78
2022-07-25T14:13:15.148Z,7.97
2022-07-25T14:15:42.787Z,3.13
2022-07-25T14:18:10.559Z,2.22
2022-07-25T14:20:38.208Z,10.35
2022-07-25T14:23:06.073Z,2.50
2022-07-25T14:25:33.843Z,3.90
2022-07-25T14:28:03.008Z,2.13
2022-07-25T14:30:30.833Z,5.70
2022-07-25T14:32:58.408Z,5.20
2022-07-25T14:35:31.888Z,4.43
2022-07-25T14:38:00.073Z,6.15
2022-07-25T14:40:27.864Z,5.60
2022-07-25T14:42:55.459Z,2.70
2022-07-25T14:45:24.526Z,5.93
2022-07-25T14:47:52.105Z,4.43
2022-07-25T14:50:19.793Z,4.28
2022-07-25T14:52:49.336Z,6.93
2022-07-25T14:55:16.963Z,2.83
2022-07-25T14:57:45.259Z,7.10
2022-07-25T15:00:13.877Z,6.53
2022-07-25T15:02:42.910Z,7.03
2022-07-25T15:05:10.840Z,4.80
2022-07-25T15:07:38.642Z,5.63
2022-07-25T15:10:06.954Z,5.87
2022-07-25T15:12:34.595Z,4.33
2022-07-25T15:15:02.223Z,4.03
2022-07-25T15:17:29.854Z,4.83
2022-07-25T15:19:58.896Z,7.77
2022-07-25T15:22:26.563Z,15.40
2022-07-25T15:27:41.982Z,7.30
2022-07-25T15:30:10.826Z,6.23
2022-07-25T15:32:39.149Z,9.10
2022-07-25T15:35:09.420Z,10.73
2022-07-25T15:37:37.310Z,4.03
2022-07-25T15:40:06.174Z,6.67
2022-07-25T15:42:33.907Z,5.67
2022-07-25T15:45:31.484Z,8.43
2022-07-25T15:47:51.315Z,7.60
2022-07-25T15:50:20.386Z,4.47
2022-07-25T15:52:48.101Z,2.00
2022-07-25T15:55:15.811Z,7.03
2022-07-25T15:57:43.470Z,8.37
2022-07-25T16:00:12.158Z,8.80
2022-07-25T16:02:39.921Z,4.87
2022-07-25T16:05:08.012Z,5.43
2022-07-25T16:07:36.990Z,2.07
2022-07-25T16:10:05.810Z,7.43
2022-07-25T16:12:33.463Z,3.07
2022-07-25T16:15:01.114Z,8.13
2022-07-25T16:17:28.818Z,8.37
2022-07-25T16:19:56.915Z,3.37
2022-07-25T16:22:25.485Z,3.73
2022-07-25T16:24:54.583Z,7.80
2022-07-25T16:27:22.586Z,5.30
2022-07-25T16:29:50.448Z,5.10
2022-07-25T16:32:18.774Z,10.77
2022-07-25T16:34:47.213Z,7.70
2022-07-25T16:37:15.682Z,5.67
2022-07-25T16:39:43.359Z,3.13
2022-07-25T16:42:12.652Z,6.23
2022-07-25T16:44:40.472Z,3.30
2022-07-25T16:47:08.398Z,3.80
2022-07-25T16:49:36.106Z,2.47
2022-07-25T16:52:03.851Z,2.93
2022-07-25T16:54:31.568Z,5.57
2022-07-25T16:56:59.862Z,3.90
2022-07-25T16:59:29.093Z,7.80
2022-07-25T17:01:56.869Z,6.93
2022-07-25T17:04:24.577Z,4.83
2022-07-25T17:06:52.287Z,5.23
2022-07-25T17:09:19.950Z,8.70
2022-07-25T17:11:47.587Z,3.83
2022-07-25T17:14:15.206Z,5.13
2022-07-25T17:16:44.723Z,2.60
2022-07-25T17:19:12.389Z,6.03
2022-07-25T17:21:40.348Z,5.37
2022-07-25T17:24:08.846Z,2.93
2022-07-25T17:26:36.654Z,8.07
2022-07-25T17:29:07.743Z,6.90
2022-07-25T17:31:35.968Z,7.83
2022-07-25T17:34:05.116Z,5.53
2022-07-25T17:36:32.766Z,5.37
2022-07-25T17:39:00.417Z,5.50
2022-07-25T17:41:28.003Z,3.13
2022-07-25T17:43:55.637Z,4.77
2022-07-25T17:46:23.950Z,9.20
2022-07-25T17:48:51.816Z,5.60
2022-07-25T17:51:20.802Z,3.80
2022-07-25T17:53:48.639Z,7.37
2022-07-25T17:56:16.571Z,11.27
2022-07-25T17:58:44.249Z,4.60
2022-07-25T18:01:11.942Z,4.83
2022-07-25T18:03:40.495Z,3.63
2022-07-25T18:06:08.217Z,4.00
2022-07-25T18:08:37.882Z,4.80
2022-07-25T18:11:05.654Z,7.10
2022-07-25T18:13:34.663Z,5.90
2022-07-25T18:16:02.434Z,3.07
2022-07-25T18:18:31.559Z,6.37
2022-07-25T18:20:59.274Z,6.53
2022-07-25T18:23:28.635Z,3.10
2022-07-25T18:25:57.616Z,3.40
2022-07-25T18:28:25.491Z,8.00
2022-07-25T18:30:54.958Z,7.53
2022-07-25T18:33:22.719Z,3.83
2022-07-25T18:35:51.253Z,7.00
2022-07-25T18:38:19.041Z,6.60
2022-07-25T18:40:46.710Z,2.37
2022-07-25T18:43:15.910Z,4.20
2022-07-25T18:45:46.696Z,4.87
2022-07-25T18:48:14.716Z,4.37
2022-07-25T18:50:42.743Z,2.37
2022-07-25T18:53:12.449Z,10.10
2022-07-25T18:55:40.153Z,3.10
2022-07-25T18:58:08.898Z,7.20
2022-07-25T19:00:37.894Z,2.40
2022-07-25T19:03:05.487Z,4.17
2022-07-25T19:05:33.317Z,5.17
2022-07-25T19:08:01.115Z,3.07
2022-07-25T19:10:28.703Z,2.50
2022-07-25T19:12:56.357Z,6.47
2022-07-25T19:15:24.170Z,2.70
2022-07-25T19:17:53.318Z,5.90
2022-07-25T19:20:21.383Z,5.53
2022-07-25T19:22:49.330Z,13.63
2022-07-25T19:25:16.962Z,4.37
2022-07-25T19:27:44.835Z,2.23
2022-07-25T19:30:17.352Z,3.13
2022-07-25T19:32:45.962Z,5.90
2022-07-25T19:35:15.032Z,6.70
2022-07-25T19:37:42.702Z,3.40
2022-07-25T19:40:11.114Z,2.40
2022-07-25T19:42:39.459Z,4.40
2022-07-25T19:45:08.339Z,3.30
2022-07-25T19:47:36.087Z,4.53
2022-07-25T19:50:04.310Z,2.37
2022-07-25T19:52:33.391Z,4.20
2022-07-25T19:55:01.221Z,3.07
2022-07-25T19:57:29.457Z,2.20
2022-07-25T19:59:57.127Z,4.10
2022-07-25T20:02:24.958Z,5.23
2022-07-25T20:04:52.716Z,7.53
2022-07-25T20:07:20.793Z,2.57
2022-07-25T20:09:49.707Z,2.93
2022-07-25T20:12:18.938Z,1.70
2022-07-25T20:14:46.719Z,2.63
2022-07-25T20:17:14.728Z,7.07
2022-07-25T20:19:42.548Z,8.50
2022-07-25T20:22:10.905Z,5.00
2022-07-25T20:24:38.602Z,6.33
2022-07-25T20:27:07.837Z,4.77
2022-07-25T20:29:35.699Z,1.60
2022-07-25T20:32:05.766Z,5.07
2022-07-25T20:34:33.398Z,2.50
2022-07-25T20:37:01.008Z,0.80
2022-07-25T20:39:28.923Z,6.77
2022-07-25T20:41:56.630Z,3.00
2022-07-25T20:44:25.693Z,6.00
2022-07-25T20:46:54.050Z,1.93
2022-07-25T20:49:21.738Z,2.77
2022-07-25T20:51:54.194Z,1.27
2022-07-25T20:54:22.480Z,4.20
2022-07-25T20:56:50.207Z,9.20
2022-07-25T20:59:17.902Z,4.03
2022-07-25T21:01:47.369Z,4.77
2022-07-25T21:04:16.499Z,5.13
2022-07-25T21:06:45.468Z,5.43
2022-07-25T21:09:13.815Z,3.17
2022-07-25T21:11:41.526Z,7.00
2022-07-25T21:14:09.592Z,3.97
2022-07-25T21:16:37.520Z,2.90
2022-07-25T21:19:06.827Z,2.20
2022-07-25T21:21:36.073Z,3.30
2022-07-25T21:24:03.693Z,2.53
2022-07-25T21:26:31.484Z,4.20
2022-07-25T21:28:59.217Z,5.67
2022-07-25T21:31:26.924Z,0.93
2022-07-25T21:33:54.587Z,4.43
2022-07-25T21:36:23.505Z,4.77
2022-07-25T21:38:51.170Z,1.07
2022-07-25T21:41:18.799Z,3.37
2022-07-25T21:43:47.510Z,3.80
2022-07-25T21:46:15.171Z,6.53
2022-07-25T21:49:00.782Z,5.97
2022-07-25T21:51:41.033Z,3.43
2022-07-25T21:54:09.045Z,3.23
2022-07-25T21:56:36.885Z,2.13
2022-07-25T21:59:05.402Z,1.37
2022-07-25T22:01:33.355Z,2.30
2022-07-25T22:04:01.104Z,3.60
2022-07-25T22:06:30.163Z,7.40
2022-07-25T22:08:58.000Z,2.83
2022-07-25T22:11:42.494Z,3.77
2022-07-25T22:14:13.736Z,3.00
2022-07-25T22:16:41.479Z,3.27
2022-07-25T22:19:09.850Z,3.40
2022-07-25T22:21:40.237Z,6.30
2022-07-25T22:24:08.326Z,3.40
2022-07-25T22:26:36.109Z,3.63
2022-07-25T22:29:04.117Z,2.53
2022-07-25T22:31:31.967Z,7.40
2022-07-25T22:33:59.618Z,9.17
2022-07-25T22:36:27.225Z,4.87
2022-07-25T22:38:56.223Z,3.93
2022-07-25T22:41:23.897Z,2.67
2022-07-25T22:43:57.433Z,5.37
2022-07-25T22:46:26.253Z,6.87
2022-07-25T22:48:53.968Z,3.80
2022-07-25T22:51:22.234Z,3.00
2022-07-25T22:53:50.245Z,1.47
2022-07-25T22:56:19.610Z,3.67
2022-07-25T22:58:48.968Z,6.63
2022-07-25T23:01:17.181Z,4.50
2022-07-25T23:03:44.910Z,2.63
2022-07-25T23:06:12.845Z,2.83
2022-07-25T23:08:40.526Z,3.90
2022-07-25T23:11:08.417Z,11.20
2022-07-25T23:13:37.978Z,4.87
2022-07-25T23:16:06.381Z,1.73
2022-07-25T23:18:38.523Z,5.60
2022-07-25T23:21:06.596Z,2.17
2022-07-25T23:23:34.256Z,4.27
2022-07-25T23:26:02.233Z,2.30
2022-07-25T23:28:30.003Z,3.27
2022-07-25T23:30:59.048Z,4.40
2022-07-25T23:33:26.976Z,4.43
2022-07-25T23:35:55.248Z,2.83
2022-07-25T23:38:22.923Z,4.23
2022-07-25T23:40:50.728Z,5.37
2022-07-25T23:43:52.200Z,3.20
2022-07-25T23:46:07.694Z,4.07
2022-07-25T23:48:35.812Z,4.30
2022-07-25T23:51:03.463Z,4.37
2022-07-25T23:53:34.488Z,4.03
2022-07-25T23:56:02.147Z,2.77
2022-07-25T23:58:29.792Z,4.57
